^^
Your Local Weather - Clay, NY Station Historical Data
Daily Summary for March 22, 2017 Units:  Metric    English   Both
« Previous Day
Next Day »
Daily Weekly Monthly Yearly Custom
  High: Low: Average:
Temperature: 2.4 °C -8.9 °C -5.7 °C
Dew Point: -1.6 °C -18.5 °C -13 °C
Humidity: 89% 39% 58%
Wind Speed: 17.7km/h 0km/h 8.5km/h
Wind Gust: 32.2km/h - -
Wind- - WNW
Pressure: 1031.7 hPa 1012.1 hPa -
Precipitation: 0 mm    
Historical Graphs
 
 
Tabular Data for March 22, 2017
Time Temperature Dew Point Pressure Wind Wind Speed Wind Gust Humidity Rainfall Rate (Hourly) solar
00:00 2.3 °C -3.4 °C 1012.1 hPa WNW 6.4 km/h 6.4 km/h 66% 0 mm 0 W/m2
00:06 2.4 °C -3.3 °C 1012.1 hPa West 8 km/h 9.7 km/h 66% 0 mm 0 W/m2
00:12 2.4 °C -3.1 °C 1012.1 hPa WNW 9.7 km/h 14.5 km/h 67% 0 mm 0 W/m2
00:18 2.3 °C -2.8 °C 1012.1 hPa West 8 km/h 14.5 km/h 69% 0 mm 0 W/m2
00:24 2.2 °C -2.7 °C 1012.1 hPa West 8 km/h 11.3 km/h 70% 0 mm 0 W/m2
00:30 2.1 °C -2.6 °C 1012.1 hPa WSW 8 km/h 8 km/h 71% 0 mm 0 W/m2
00:36 2.1 °C -2.4 °C 1012.1 hPa WNW 6.4 km/h 8 km/h 72% 0 mm 0 W/m2
00:42 1.9 °C -2.4 °C 1012.1 hPa West 6.4 km/h 12.9 km/h 73% 0 mm 0 W/m2
00:48 1.8 °C -2.3 °C 1012.1 hPa WSW 6.4 km/h 12.9 km/h 74% 0 mm 0 W/m2
00:54 1.8 °C -2.3 °C 1012.1 hPa WNW 6.4 km/h 9.7 km/h 74% 0 mm 0 W/m2
01:00 1.7 °C -2.3 °C 1012.1 hPa West 8 km/h 8 km/h 75% 0 mm 0 W/m2
01:06 1.5 °C -2.3 °C 1012.1 hPa WNW 6.4 km/h 8 km/h 76% 0 mm 0 W/m2
01:12 1.1 °C -1.8 °C 1012.4 hPa WNW 6.4 km/h 6.4 km/h 81% 0 mm 0 W/m2
01:18 0.8 °C -1.7 °C 1012.4 hPa WNW 6.4 km/h 6.4 km/h 83% 0 mm 0 W/m2
01:24 0.7 °C -1.7 °C 1012.4 hPa WNW 4.8 km/h 6.4 km/h 84% 0 mm 0 W/m2
01:30 0.6 °C -1.6 °C 1012.4 hPa WNW 4.8 km/h 4.8 km/h 85% 0 mm 0 W/m2
01:38 0.7 °C -1.7 °C 1012.8 hPa WNW 8 km/h 12.9 km/h 84% 0 mm 0 W/m2
01:44 0.6 °C -2 °C 1012.8 hPa WNW 9.7 km/h 12.9 km/h 83% 0 mm 0 W/m2
01:50 0.4 °C -2.2 °C 1012.8 hPa WNW 8 km/h 12.9 km/h 83% 0 mm 0 W/m2
01:56 0.3 °C -2.3 °C 1012.8 hPa North 6.4 km/h 12.9 km/h 83% 0 mm 0 W/m2
02:02 0.2 °C -2.4 °C 1013.1 hPa NW 6.4 km/h 12.9 km/h 83% 0 mm 0 W/m2
02:08 0.1 °C -2.6 °C 1013.1 hPa NW 6.4 km/h 12.9 km/h 82% 0 mm 0 W/m2
02:14 0 °C -2.7 °C 1013.1 hPa WNW 6.4 km/h 9.7 km/h 82% 0 mm 0 W/m2
02:20 -0.2 °C -2.9 °C 1013.8 hPa NW 8 km/h 8 km/h 82% 0 mm 0 W/m2
02:26 -0.7 °C -3.1 °C 1013.8 hPa NW 8 km/h 14.5 km/h 84% 0 mm 0 W/m2
02:32 -1.3 °C -3.3 °C 1014.1 hPa NW 9.7 km/h 12.9 km/h 86% 0 mm 0 W/m2
02:38 -1.8 °C -3.7 °C 1014.4 hPa NNW 11.3 km/h 16.1 km/h 87% 0 mm 0 W/m2
02:44 -2.3 °C -4.1 °C 1014.8 hPa NW 12.9 km/h 12.9 km/h 88% 0 mm 0 W/m2
02:50 -2.7 °C -4.4 °C 1014.8 hPa NNW 11.3 km/h 14.5 km/h 88% 0 mm 0 W/m2
02:56 -2.9 °C -4.5 °C 1014.8 hPa NW 11.3 km/h 20.9 km/h 89% 0 mm 0 W/m2
03:02 -3.1 °C -4.7 °C 1015.1 hPa NW 11.3 km/h 14.5 km/h 89% 0 mm 0 W/m2
03:08 -3.2 °C -4.9 °C 1015.5 hPa NNW 11.3 km/h 16.1 km/h 88% 0 mm 0 W/m2
03:14 -3.2 °C -5.1 °C 1015.5 hPa NNW 11.3 km/h 17.7 km/h 87% 0 mm 0 W/m2
03:20 -3.2 °C -5.2 °C 1015.5 hPa NW 9.7 km/h 9.7 km/h 86% 0 mm 0 W/m2
03:26 -3.2 °C -5.6 °C 1015.5 hPa NW 9.7 km/h 12.9 km/h 84% 0 mm 0 W/m2
03:32 -3.4 °C -6.2 °C 1015.8 hPa WNW 11.3 km/h 11.3 km/h 81% 0 mm 0 W/m2
03:38 -3.4 °C -6.4 °C 1016.1 hPa WNW 11.3 km/h 19.3 km/h 80% 0 mm 0 W/m2
03:46 -3.6 °C -6.7 °C 1016.5 hPa NNW 9.7 km/h 14.5 km/h 79% 0 mm 0 W/m2
03:52 -3.7 °C -6.7 °C 1016.8 hPa NW 9.7 km/h 16.1 km/h 80% 0 mm 0 W/m2
03:58 -4 °C -6.8 °C 1016.8 hPa NW 11.3 km/h 16.1 km/h 81% 0 mm 0 W/m2
04:04 -4.3 °C -6.9 °C 1016.8 hPa NW 12.9 km/h 16.1 km/h 82% 0 mm 0 W/m2
04:10 -4.6 °C -7.2 °C 1017.5 hPa WNW 9.7 km/h 9.7 km/h 82% 0 mm 0 W/m2
04:16 -4.8 °C -7.6 °C 1017.5 hPa NW 9.7 km/h 17.7 km/h 81% 0 mm 0 W/m2
04:22 -4.9 °C -7.9 °C 1017.8 hPa NW 9.7 km/h 9.7 km/h 80% 0 mm 0 W/m2
04:28 -4.9 °C -8.1 °C 1017.8 hPa NW 9.7 km/h 11.3 km/h 78% 0 mm 0 W/m2
04:34 -4.9 °C -8.7 °C 1018.2 hPa NNW 9.7 km/h 22.5 km/h 75% 0 mm 0 W/m2
04:40 -4.9 °C -8.9 °C 1018.5 hPa NW 9.7 km/h 9.7 km/h 74% 0 mm 0 W/m2
04:46 -5.1 °C -9.7 °C 1018.5 hPa NNW 11.3 km/h 16.1 km/h 70% 0 mm 0 W/m2
04:52 -5.2 °C -10.4 °C 1018.5 hPa NNW 14.5 km/h 22.5 km/h 67% 0 mm 0 W/m2
04:58 -5.2 °C -10.8 °C 1018.8 hPa NNW 12.9 km/h 22.5 km/h 65% 0 mm 0 W/m2
05:04 -5.3 °C -10.9 °C 1018.8 hPa NNE 14.5 km/h 19.3 km/h 65% 0 mm 0 W/m2
05:10 -5.5 °C -10.8 °C 1019.2 hPa North 14.5 km/h 16.1 km/h 66% 0 mm 0 W/m2
05:16 -5.7 °C -10.8 °C 1019.2 hPa NW 16.1 km/h 24.1 km/h 67% 0 mm 0 W/m2
05:22 -5.8 °C -10.8 °C 1019.2 hPa NNW 17.7 km/h 17.7 km/h 68% 0 mm 0 W/m2
05:28 -6 °C -10.9 °C 1019.5 hPa North 17.7 km/h 17.7 km/h 68% 0 mm 0 W/m2
05:34 -6.1 °C -11.4 °C 1019.5 hPa NNW 14.5 km/h 16.1 km/h 66% 0 mm 0 W/m2
05:40 -6.2 °C -11.9 °C 1019.9 hPa NNW 12.9 km/h 17.7 km/h 64% 0 mm 0 W/m2
05:42 -6.2 °C -11.9 °C 1020.2 hPa North 12.9 km/h 17.7 km/h 64% 0 mm 0 W/m2
05:48 -6.4 °C -12.7 °C 1020.2 hPa NNE 14.5 km/h 32.2 km/h 61% 0 mm 0 W/m2
05:54 -6.7 °C -13.2 °C 1020.5 hPa NNW 16.1 km/h 22.5 km/h 60% 0 mm 0 W/m2
06:02 -6.9 °C -12.9 °C 1020.9 hPa NNW 16.1 km/h 22.5 km/h 62% 0 mm 0 W/m2
06:08 -7 °C -13.4 °C 1020.9 hPa NNW 17.7 km/h 22.5 km/h 60% 0 mm 0 W/m2
06:14 -7.2 °C -14.1 °C 1021.2 hPa NNE 14.5 km/h 22.5 km/h 58% 0 mm 0 W/m2
06:20 -7.4 °C -14.7 °C 1021.6 hPa North 14.5 km/h 14.5 km/h 56% 0 mm 0 W/m2
06:26 -7.6 °C -14.8 °C 1021.6 hPa North 12.9 km/h 14.5 km/h 56% 0 mm 0 W/m2
06:32 -7.7 °C -14.9 °C 1021.9 hPa NW 8 km/h 9.7 km/h 56% 0 mm 0 W/m2
06:38 -7.7 °C -15.2 °C 1022.2 hPa NNW 9.7 km/h 9.7 km/h 55% 0 mm 0 W/m2
06:44 -7.7 °C -15.4 °C 1022.2 hPa NNW 11.3 km/h 12.9 km/h 54% 0 mm 0 W/m2
06:50 -7.7 °C -15.2 °C 1022.6 hPa NW 12.9 km/h 14.5 km/h 55% 0 mm 0 W/m2
06:56 -7.8 °C -14.9 °C 1022.9 hPa NW 12.9 km/h 17.7 km/h 57% 0 mm 0 W/m2
07:02 -7.9 °C -14.9 °C 1022.9 hPa NNE 12.9 km/h 12.9 km/h 57% 0 mm 0 W/m2
07:08 -7.9 °C -15.4 °C 1023.2 hPa NW 12.9 km/h 14.5 km/h 55% 0 mm 9 W/m2
07:14 -7.9 °C -15.2 °C 1023.6 hPa NW 9.7 km/h 11.3 km/h 56% 0 mm 18 W/m2
07:20 -7.9 °C -15.4 °C 1023.6 hPa NW 9.7 km/h 16.1 km/h 55% 0 mm 23 W/m2
07:26 -8.1 °C -15.3 °C 1023.9 hPa NW 12.9 km/h 20.9 km/h 56% 0 mm 16 W/m2
07:32 -8.2 °C -15.4 °C 1023.9 hPa NNE 14.5 km/h 20.9 km/h 56% 0 mm 23 W/m2
07:38 -8.3 °C -16.2 °C 1023.9 hPa NNW 16.1 km/h 20.9 km/h 53% 0 mm 26 W/m2
07:44 -8.6 °C -16.7 °C 1024.3 hPa North 17.7 km/h 17.7 km/h 52% 0 mm 42 W/m2
07:50 -8.7 °C -17 °C 1024.3 hPa North 14.5 km/h 14.5 km/h 51% 0 mm 47 W/m2
07:56 -8.8 °C -17.3 °C 1024.6 hPa North 12.9 km/h 14.5 km/h 50% 0 mm 67 W/m2
08:02 -8.7 °C -17.1 °C 1024.6 hPa North 12.9 km/h 20.9 km/h 51% 0 mm 53 W/m2
08:08 -8.8 °C -17.3 °C 1024.9 hPa NNW 12.9 km/h 20.9 km/h 50% 0 mm 91 W/m2
08:14 -8.7 °C -17.2 °C 1024.9 hPa NNE 12.9 km/h 14.5 km/h 50% 0 mm 95 W/m2
08:20 -8.7 °C -17.5 °C 1024.9 hPa NW 12.9 km/h 12.9 km/h 49% 0 mm 95 W/m2
08:26 -8.7 °C -17.5 °C 1025.3 hPa NW 14.5 km/h 20.9 km/h 49% 0 mm 137 W/m2
08:32 -8.6 °C -17.4 °C 1025.6 hPa North 14.5 km/h 16.1 km/h 49% 0 mm 156 W/m2
08:38 -8.6 °C -17.4 °C 1025.6 hPa North 12.9 km/h 17.7 km/h 49% 0 mm 146 W/m2
08:44 -8.6 °C -17.4 °C 1025.6 hPa North 12.9 km/h 19.3 km/h 49% 0 mm 206 W/m2
08:50 -8.6 °C -16.9 °C 1025.6 hPa NNE 14.5 km/h 16.1 km/h 51% 0 mm 204 W/m2
08:56 -8.5 °C -17.1 °C 1026 hPa NNW 11.3 km/h 16.1 km/h 50% 0 mm 195 W/m2
09:02 -8.7 °C -16.8 °C 1026 hPa NNW 14.5 km/h 14.5 km/h 52% 0 mm 120 W/m2
09:08 -8.6 °C -16.9 °C 1026 hPa North 12.9 km/h 17.7 km/h 51% 0 mm 213 W/m2
09:14 -8.5 °C -16.8 °C 1026.3 hPa North 14.5 km/h 22.5 km/h 51% 0 mm 188 W/m2
09:20 -8.2 °C -16.3 °C 1026.6 hPa NW 9.7 km/h 9.7 km/h 52% 0 mm 250 W/m2
09:26 -8.4 °C -16.1 °C 1026.6 hPa WNW 11.3 km/h 11.3 km/h 54% 0 mm 190 W/m2
09:32 -8.4 °C -16.5 °C 1026.6 hPa NNW 11.3 km/h 11.3 km/h 52% 0 mm 323 W/m2
09:38 -8.2 °C -16.6 °C 1026.6 hPa NNW 12.9 km/h 19.3 km/h 51% 0 mm 336 W/m2
09:44 -8.4 °C -15.8 °C 1026.6 hPa NNW 12.9 km/h 14.5 km/h 55% 0 mm 454 W/m2
09:50 -8 °C -15.7 °C 1026.6 hPa NNW 12.9 km/h 12.9 km/h 54% 0 mm 457 W/m2
09:56 -7.6 °C -15.5 °C 1027 hPa NW 11.3 km/h 14.5 km/h 53% 0 mm 596 W/m2
10:02 -7.7 °C -15.4 °C 1027 hPa West 12.9 km/h 14.5 km/h 54% 0 mm 295 W/m2
10:08 -7.6 °C -15.3 °C 1027.3 hPa NNW 11.3 km/h 14.5 km/h 54% 0 mm 550 W/m2
10:14 -8.1 °C -14.4 °C 1027.3 hPa NNW 12.9 km/h 19.3 km/h 60% 0 mm 448 W/m2
10:20 -8.4 °C -14.2 °C 1027.7 hPa NNW 11.3 km/h 11.3 km/h 63% 0 mm 287 W/m2
10:26 -8.5 °C -14.1 °C 1027.7 hPa NW 9.7 km/h 14.5 km/h 64% 0 mm 223 W/m2
10:32 -8.3 °C -13 °C 1027.7 hPa NW 11.3 km/h 14.5 km/h 69% 0 mm 401 W/m2
10:38 -8.1 °C -13 °C 1027.7 hPa NW 11.3 km/h 17.7 km/h 68% 0 mm 464 W/m2
10:44 -8.3 °C -12.7 °C 1028 hPa North 11.3 km/h 12.9 km/h 71% 0 mm 274 W/m2
10:50 -8.9 °C -12.8 °C 1028 hPa NW 11.3 km/h 11.3 km/h 73% 0 mm 183 W/m2
10:56 -8.6 °C -13.1 °C 1028 hPa NW 11.3 km/h 12.9 km/h 70% 0 mm 541 W/m2
11:02 -8.6 °C -12.2 °C 1028.3 hPa NNW 12.9 km/h 14.5 km/h 75% 0 mm 483 W/m2
11:08 -8.2 °C -12.2 °C 1028.3 hPa NNW 11.3 km/h 17.7 km/h 73% 0 mm 770 W/m2
11:14 -8.2 °C -12.4 °C 1028.3 hPa NNW 11.3 km/h 17.7 km/h 72% 0 mm 594 W/m2
11:20 -8.3 °C -12.3 °C 1028.3 hPa North 12.9 km/h 12.9 km/h 73% 0 mm 744 W/m2
11:26 -8.1 °C -12.4 °C 1028.3 hPa NNW 12.9 km/h 12.9 km/h 71% 0 mm 670 W/m2
11:32 -8.4 °C -12.4 °C 1028.7 hPa NNW 12.9 km/h 12.9 km/h 73% 0 mm 703 W/m2
11:38 -7.8 °C -13.7 °C 1028.3 hPa North 11.3 km/h 19.3 km/h 63% 0 mm 886 W/m2
11:44 -7.6 °C -14.4 °C 1028.7 hPa NNW 11.3 km/h 19.3 km/h 58% 0 mm 626 W/m2
11:50 -8.1 °C -15.1 °C 1028.7 hPa NNW 11.3 km/h 12.9 km/h 57% 0 mm 186 W/m2
11:56 -7.5 °C -16.7 °C 1028.7 hPa NNW 12.9 km/h 20.9 km/h 48% 0 mm 877 W/m2
12:02 -7.4 °C -16.3 °C 1028.7 hPa NW 12.9 km/h 12.9 km/h 49% 0 mm 308 W/m2
12:08 -7.3 °C -16.9 °C 1028.7 hPa NNE 11.3 km/h 16.1 km/h 46% 0 mm 969 W/m2
12:14 -7 °C -16.4 °C 1028.7 hPa NNE 11.3 km/h 14.5 km/h 47% 0 mm 438 W/m2
12:20 -7.1 °C -15.7 °C 1028.7 hPa NW 11.3 km/h 11.3 km/h 50% 0 mm 432 W/m2
12:26 -7.2 °C -15.4 °C 1029 hPa NNW 9.7 km/h 12.9 km/h 52% 0 mm 403 W/m2
12:32 -7.3 °C -14.8 °C 1028.7 hPa NW 8 km/h 14.5 km/h 55% 0 mm 388 W/m2
12:38 -6.8 °C -14.6 °C 1028.7 hPa NNW 8 km/h 14.5 km/h 54% 0 mm 408 W/m2
12:44 -6.7 °C -15.4 °C 1029 hPa WNW 8 km/h 9.7 km/h 50% 0 mm 737 W/m2
12:50 -6.3 °C -16.9 °C 1029 hPa NNW 8 km/h 11.3 km/h 43% 0 mm 842 W/m2
12:56 -6.4 °C -17.5 °C 1029.3 hPa North 9.7 km/h 12.9 km/h 41% 0 mm 828 W/m2
13:02 -6.8 °C -18.5 °C 1029.3 hPa NNW 11.3 km/h 19.3 km/h 39% 0 mm 823 W/m2
13:08 -6.7 °C -17.8 °C 1029.3 hPa WNW 11.3 km/h 19.3 km/h 41% 0 mm 819 W/m2
13:14 -6.4 °C -18.2 °C 1029.3 hPa North 9.7 km/h 11.3 km/h 39% 0 mm 816 W/m2
13:20 -6.2 °C -17.1 °C 1029.3 hPa North 9.7 km/h 9.7 km/h 42% 0 mm 819 W/m2
13:26 -6 °C -16.9 °C 1029.7 hPa WNW 8 km/h 9.7 km/h 42% 0 mm 831 W/m2
13:32 -6.4 °C -17.5 °C 1029.7 hPa North 9.7 km/h 12.9 km/h 41% 0 mm 858 W/m2
13:38 -6.7 °C -17.4 °C 1029.3 hPa NNW 11.3 km/h 16.1 km/h 42% 0 mm 805 W/m2
13:44 -6.6 °C -16.8 °C 1029.7 hPa NW 12.9 km/h 16.1 km/h 44% 0 mm 946 W/m2
13:52 -6.5 °C -17.6 °C 1029.7 hPa WNW 9.7 km/h 14.5 km/h 41% 0 mm 817 W/m2
13:58 -6.4 °C -17.8 °C 1029.7 hPa NNW 11.3 km/h 14.5 km/h 40% 0 mm 798 W/m2
14:04 -6.2 °C -16.8 °C 1029.3 hPa NNW 11.3 km/h 20.9 km/h 43% 0 mm 793 W/m2
14:10 -6.1 °C -17.8 °C 1029.7 hPa West 11.3 km/h 16.1 km/h 39% 0 mm 788 W/m2
14:16 -6.4 °C -17.8 °C 1029.3 hPa NW 12.9 km/h 16.1 km/h 40% 0 mm 784 W/m2
14:22 -5.9 °C -17.3 °C 1029.7 hPa NNW 11.3 km/h 11.3 km/h 40% 0 mm 777 W/m2
14:28 -6.1 °C -17.2 °C 1029.7 hPa NW 11.3 km/h 11.3 km/h 41% 0 mm 770 W/m2
14:34 -6.1 °C -16.9 °C 1029.3 hPa NNW 11.3 km/h 11.3 km/h 42% 0 mm 765 W/m2
14:40 -5.8 °C -16.9 °C 1029.7 hPa NW 11.3 km/h 11.3 km/h 41% 0 mm 759 W/m2
14:46 -5.8 °C -16.4 °C 1029.7 hPa NW 11.3 km/h 11.3 km/h 43% 0 mm 763 W/m2
14:52 -5.4 °C -16 °C 1029.7 hPa NW 9.7 km/h 9.7 km/h 43% 0 mm 763 W/m2
14:58 -5.4 °C -16.3 °C 1029.7 hPa NW 9.7 km/h 16.1 km/h 42% 0 mm 782 W/m2
15:04 -5.2 °C -16.1 °C 1029.7 hPa WNW 9.7 km/h 17.7 km/h 42% 0 mm 795 W/m2
15:10 -5.5 °C -15.8 °C 1029.7 hPa NW 9.7 km/h 9.7 km/h 44% 0 mm 745 W/m2
15:16 -5.7 °C -15.5 °C 1030 hPa NW 9.7 km/h 9.7 km/h 46% 0 mm 888 W/m2
15:18 -5.2 °C -15.1 °C 1030 hPa NW 8 km/h 9.7 km/h 46% 0 mm 888 W/m2
15:24 -5.1 °C -15.2 °C 1030 hPa WNW 9.7 km/h 22.5 km/h 45% 0 mm 710 W/m2
15:30 -5.7 °C -15.4 °C 1030 hPa NW 9.7 km/h 9.7 km/h 46% 0 mm 197 W/m2
15:36 -5.6 °C -16.2 °C 1030 hPa West 9.7 km/h 16.1 km/h 43% 0 mm 728 W/m2
15:38 -5.6 °C -16.2 °C 1029.7 hPa NNW 9.7 km/h 16.1 km/h 43% 0 mm 680 W/m2
15:42 -5.4 °C -16.1 °C 1030 hPa NNW 11.3 km/h 16.1 km/h 43% 0 mm 687 W/m2
15:44 -5.3 °C -16 °C 1030 hPa NNW 11.3 km/h 16.1 km/h 43% 0 mm 666 W/m2
15:50 -5.4 °C -16.1 °C 1029.7 hPa West 9.7 km/h 9.7 km/h 43% 0 mm 425 W/m2
15:54 -4.9 °C -15.1 °C 1029.7 hPa NNW 8 km/h 14.5 km/h 45% 0 mm 679 W/m2
15:56 -4.9 °C -15.9 °C 1030 hPa NNW 9.7 km/h 14.5 km/h 42% 0 mm 719 W/m2
16:02 -5 °C -16.2 °C 1030 hPa NW 9.7 km/h 11.3 km/h 41% 0 mm 656 W/m2
16:06 -5.1 °C -16 °C 1030 hPa NNW 9.7 km/h 17.7 km/h 42% 0 mm 610 W/m2
16:10 -5.1 °C -15.7 °C 1030 hPa NW 9.7 km/h 9.7 km/h 43% 0 mm 594 W/m2
16:16 -4.9 °C -15.6 °C 1030 hPa West 6.4 km/h 9.7 km/h 43% 0 mm 548 W/m2
16:22 -4.8 °C -16.1 °C 1030 hPa NNW 8 km/h 9.7 km/h 41% 0 mm 566 W/m2
16:28 -4.8 °C -16.1 °C 1030 hPa West 8 km/h 9.7 km/h 41% 0 mm 520 W/m2
16:34 -5.2 °C -16.7 °C 1030 hPa WNW 9.7 km/h 11.3 km/h 40% 0 mm 508 W/m2
16:40 -5.2 °C -15.8 °C 1030 hPa West 9.7 km/h 11.3 km/h 43% 0 mm 504 W/m2
16:42 -4.9 °C -15.6 °C 1030 hPa WNW 8 km/h 11.3 km/h 43% 0 mm 483 W/m2
16:48 -5.2 °C -16.4 °C 1030 hPa NW 8 km/h 14.5 km/h 41% 0 mm 461 W/m2
16:54 -5.2 °C -16.1 °C 1030.4 hPa NW 9.7 km/h 14.5 km/h 42% 0 mm 443 W/m2
17:00 -5 °C -15.9 °C 1030 hPa NNW 9.7 km/h 9.7 km/h 42% 0 mm 425 W/m2
17:06 -4.9 °C -15.6 °C 1030.4 hPa North 9.7 km/h 9.7 km/h 43% 0 mm 390 W/m2
17:08 -4.9 °C -16.2 °C 1030.4 hPa NNW 8 km/h 12.9 km/h 41% 0 mm 401 W/m2
17:12 -5.1 °C -16 °C 1030.4 hPa WNW 8 km/h 9.7 km/h 42% 0 mm 388 W/m2
17:18 -4.9 °C -16.2 °C 1030.4 hPa West 8 km/h 9.7 km/h 41% 0 mm 371 W/m2
17:24 -4.9 °C -16.2 °C 1030.4 hPa NNW 6.4 km/h 8 km/h 41% 0 mm 352 W/m2
17:30 -4.9 °C -16.2 °C 1030.4 hPa NW 8 km/h 9.7 km/h 41% 0 mm 338 W/m2
17:36 -5.1 °C -16.1 °C 1030.4 hPa WNW 9.7 km/h 9.7 km/h 42% 0 mm 311 W/m2
17:42 -5.1 °C -16 °C 1030.4 hPa NW 9.7 km/h 9.7 km/h 42% 0 mm 297 W/m2
17:48 -5.1 °C -16.3 °C 1030.4 hPa NW 8 km/h 12.9 km/h 41% 0 mm 274 W/m2
17:54 -5.1 °C -16.1 °C 1030.4 hPa NW 8 km/h 8 km/h 42% 0 mm 257 W/m2
18:00 -5 °C -15.9 °C 1030.4 hPa WNW 8 km/h 8 km/h 42% 0 mm 236 W/m2
18:06 -5 °C -15.7 °C 1030.4 hPa NW 6.4 km/h 8 km/h 43% 0 mm 218 W/m2
18:12 -4.9 °C -15.9 °C 1030.4 hPa North 6.4 km/h 6.4 km/h 42% 0 mm 179 W/m2
18:18 -5.1 °C -16 °C 1030.4 hPa NNW 8 km/h 11.3 km/h 42% 0 mm 176 W/m2
18:24 -5.1 °C -15.5 °C 1030.4 hPa NW 8 km/h 11.3 km/h 44% 0 mm 160 W/m2
18:30 -5.1 °C -15.2 °C 1030.4 hPa NW 4.8 km/h 4.8 km/h 45% 0 mm 141 W/m2
18:36 -5.3 °C -15.4 °C 1030.7 hPa NW 4.8 km/h 9.7 km/h 45% 0 mm 28 W/m2
18:42 -5.5 °C -15.3 °C 1030.7 hPa NNW 4.8 km/h 8 km/h 46% 0 mm 23 W/m2
18:48 -5.6 °C -15.4 °C 1030.7 hPa WNW 4.8 km/h 8 km/h 46% 0 mm 69 W/m2
18:54 -5.4 °C -15 °C 1030.7 hPa WNW 4.8 km/h 4.8 km/h 47% 0 mm 56 W/m2
19:00 -5.5 °C -15.1 °C 1030.7 hPa NW 4.8 km/h 6.4 km/h 47% 0 mm 32 W/m2
19:06 -5.7 °C -15.2 °C 1030.7 hPa NW 4.8 km/h 6.4 km/h 47% 0 mm 12 W/m2
19:12 -5.8 °C -15.3 °C 1031 hPa WNW 4.8 km/h 4.8 km/h 47% 0 mm 9 W/m2
19:18 -5.9 °C -15.2 °C 1030.7 hPa NNW 3.2 km/h 4.8 km/h 48% 0 mm 5 W/m2
19:24 -6.1 °C -15.3 °C 1031 hPa WNW 3.2 km/h 8 km/h 48% 0 mm 0 W/m2
19:30 -6.2 °C -15.2 °C 1031 hPa NNW 3.2 km/h 3.2 km/h 49% 0 mm 0 W/m2
19:36 -6.3 °C -15 °C 1031 hPa NNW 1.6 km/h 4.8 km/h 50% 0 mm 0 W/m2
19:42 -6.2 °C -15.2 °C 1031 hPa NW 3.2 km/h 4.8 km/h 49% 0 mm 0 W/m2
19:48 -6.2 °C -14.9 °C 1031 hPa NW 1.6 km/h 4.8 km/h 50% 0 mm 0 W/m2
19:54 -6.2 °C -15.2 °C 1031 hPa NW 1.6 km/h 4.8 km/h 49% 0 mm 0 W/m2
20:00 -6.2 °C -14.9 °C 1031 hPa NW 1.6 km/h 1.6 km/h 50% 0 mm 0 W/m2
20:06 -6.3 °C -15 °C 1031 hPa Calm   6.4 km/h 50% 0 mm 0 W/m2
20:12 -6.3 °C -14.8 °C 1031 hPa Calm   1.6 km/h 51% 0 mm 0 W/m2
20:18 -6.4 °C -14.7 °C 1031 hPa Calm   1.6 km/h 52% 0 mm 0 W/m2
20:24 -6.4 °C -14.4 °C 1031 hPa Calm   3.2 km/h 53% 0 mm 0 W/m2
20:30 -6.6 °C -14.6 °C 1031 hPa Calm     53% 0 mm 0 W/m2
20:36 -6.7 °C -14.4 °C 1031 hPa Calm     54% 0 mm 0 W/m2
20:42 -6.8 °C -14.2 °C 1031 hPa Calm     56% 0 mm 0 W/m2
20:48 -7 °C -14.3 °C 1031 hPa Calm     56% 0 mm 0 W/m2
20:54 -7.2 °C -14.3 °C 1031 hPa Calm     57% 0 mm 0 W/m2
21:00 -7.3 °C -14.2 °C 1031.4 hPa Calm     58% 0 mm 0 W/m2
21:06 -7.4 °C -14.1 °C 1031.4 hPa Calm     59% 0 mm 0 W/m2
21:12 -7.4 °C -13.9 °C 1031.4 hPa Calm     60% 0 mm 0 W/m2
21:18 -7.4 °C -13.9 °C 1031.4 hPa Calm     60% 0 mm 0 W/m2
21:24 -7.5 °C -13.7 °C 1031.4 hPa Calm     61% 0 mm 0 W/m2
21:30 -7.6 °C -13.8 °C 1031.4 hPa Calm     61% 0 mm 0 W/m2
21:36 -7.5 °C -13.7 °C 1031.4 hPa SW 1.6 km/h 1.6 km/h 61% 0 mm 0 W/m2
21:42 -7.5 °C -13.7 °C 1031.4 hPa SW 1.6 km/h 1.6 km/h 61% 0 mm 0 W/m2
21:48 -7.4 °C -13.7 °C 1031.4 hPa SW 1.6 km/h 3.2 km/h 61% 0 mm 0 W/m2
21:54 -7.4 °C -13.7 °C 1031.4 hPa SW 1.6 km/h 3.2 km/h 61% 0 mm 0 W/m2
22:00 -7.4 °C -13.7 °C 1031.4 hPa SW 1.6 km/h 1.6 km/h 61% 0 mm 0 W/m2
22:06 -7.4 °C -13.7 °C 1031.4 hPa SW 1.6 km/h 3.2 km/h 61% 0 mm 0 W/m2
22:12 -7.5 °C -13.7 °C 1031.7 hPa SW 1.6 km/h 3.2 km/h 61% 0 mm 0 W/m2
22:14 -7.5 °C -13.7 °C 1031.7 hPa SW 1.6 km/h 3.2 km/h 61% 0 mm 0 W/m2
22:20 -7.6 °C -13.7 °C 1031.7 hPa Calm     62% 0 mm 0 W/m2
22:26 -7.7 °C -13.7 °C 1031.7 hPa Calm     62% 0 mm 0 W/m2
22:32 -7.8 °C -13.8 °C 1031.7 hPa Calm     62% 0 mm 0 W/m2
22:38 -7.8 °C -13.8 °C 1031.7 hPa Calm   1.6 km/h 62% 0 mm 0 W/m2
22:44 -7.9 °C -13.7 °C 1031.7 hPa Calm     63% 0 mm 0 W/m2
22:50 -7.9 °C -13.8 °C 1031.7 hPa Calm     63% 0 mm 0 W/m2
22:56 -7.9 °C -13.8 °C 1031.7 hPa Calm   3.2 km/h 63% 0 mm 0 W/m2
23:02 -7.9 °C -13.8 °C 1031.7 hPa Calm   3.2 km/h 63% 0 mm 0 W/m2
23:08 -7.9 °C -13.8 °C 1031.7 hPa Calm   3.2 km/h 63% 0 mm 0 W/m2
23:14 -8.1 °C -13.9 °C 1031.7 hPa Calm   1.6 km/h 63% 0 mm 0 W/m2
23:20 -8.1 °C -13.9 °C 1031.7 hPa Calm     63% 0 mm 0 W/m2
23:26 -8.1 °C -13.9 °C 1031.7 hPa Calm     63% 0 mm 0 W/m2
23:32 -8.1 °C -13.9 °C 1031.7 hPa Calm     63% 0 mm 0 W/m2
23:38 -8.2 °C -14 °C 1031.7 hPa Calm     63% 0 mm 0 W/m2
23:44 -8.2 °C -14 °C 1031.7 hPa Calm     63% 0 mm 0 W/m2
23:50 -8.2 °C -14 °C 1031.7 hPa SW 1.6 km/h 1.6 km/h 63% 0 mm 0 W/m2
23:56 -8.1 °C -13.9 °C 1031.7 hPa Calm   1.6 km/h 63% 0 mm 0 W/m2
Country Meadow, Clay, NY, USA
Compliments of Weather Underground - 2 mb